createdAt,value
2023-03-13T00:01:25.472Z,97944.91
2023-03-13T00:03:55.640Z,97946.42
2023-03-13T00:06:27.170Z,97943.94
2023-03-13T00:08:55.994Z,97955.96
2023-03-13T00:11:24.018Z,97956.00
2023-03-13T00:13:56.913Z,97954.86
2023-03-13T00:16:26.223Z,97967.31
2023-03-13T00:18:55.978Z,97962.70
2023-03-13T00:21:26.859Z,97969.54
2023-03-13T00:23:55.781Z,97982.45
2023-03-13T00:26:26.705Z,97985.58
2023-03-13T00:28:54.769Z,97999.85
2023-03-13T00:31:26.075Z,97999.64
2023-03-13T00:33:58.700Z,97988.36
2023-03-13T00:36:29.611Z,97982.86
2023-03-13T00:38:58.783Z,97987.96
2023-03-13T00:41:29.195Z,97985.38
2023-03-13T00:43:57.199Z,97976.92
2023-03-13T00:46:28.544Z,97975.59
2023-03-13T00:48:57.731Z,97975.60
2023-03-13T00:51:27.346Z,97978.37
2023-03-13T00:53:57.128Z,97978.67
2023-03-13T00:56:25.128Z,97976.38
2023-03-13T00:58:53.615Z,97972.77
2023-03-13T01:01:23.354Z,97966.41
2023-03-13T01:04:03.773Z,97964.70
2023-03-13T01:06:34.906Z,97960.92
2023-03-13T01:09:05.594Z,97967.34
2023-03-13T01:11:39.240Z,97976.02
2023-03-13T01:14:11.580Z,97979.33
2023-03-13T01:16:40.611Z,97972.09
2023-03-13T01:19:13.681Z,97965.55
2023-03-13T01:21:43.500Z,97961.08
2023-03-13T01:24:12.297Z,97970.29
2023-03-13T01:26:42.042Z,97966.28
2023-03-13T01:29:09.983Z,97970.76
2023-03-13T01:31:39.235Z,97971.34
2023-03-13T01:34:10.773Z,97973.19
2023-03-13T01:36:39.289Z,97967.77
2023-03-13T01:39:07.500Z,97969.40
2023-03-13T01:41:35.748Z,97976.21
2023-03-13T01:44:04.218Z,97980.50
2023-03-13T01:46:38.371Z,97983.63
2023-03-13T01:49:23.694Z,97986.31
2023-03-13T01:52:11.792Z,97987.45
2023-03-13T01:55:08.854Z,97981.35
2023-03-13T01:57:42.886Z,97976.71
2023-03-13T02:00:18.452Z,97979.46
2023-03-13T02:02:51.618Z,97984.30
2023-03-13T02:05:22.904Z,97992.23
2023-03-13T02:08:07.543Z,97990.72
2023-03-13T02:10:42.246Z,97998.36
2023-03-13T02:13:15.236Z,98002.14
2023-03-13T02:15:43.903Z,98010.50
2023-03-13T02:18:12.216Z,98008.30
2023-03-13T02:20:40.828Z,98006.65
2023-03-13T02:23:15.618Z,98008.01
2023-03-13T02:25:53.646Z,98007.95
2023-03-13T02:28:36.325Z,98011.43
2023-03-13T02:31:08.831Z,98010.45
2023-03-13T02:33:42.275Z,98003.81
2023-03-13T02:36:15.164Z,98005.96
2023-03-13T02:38:55.198Z,98005.19
2023-03-13T02:41:24.767Z,98005.66
2023-03-13T02:43:53.097Z,98003.02
2023-03-13T02:46:21.949Z,97995.16
2023-03-13T02:48:57.445Z,97994.69
2023-03-13T02:51:41.943Z,97991.27
2023-03-13T02:54:16.465Z,97993.39
2023-03-13T02:56:49.038Z,97991.44
2023-03-13T02:59:17.147Z,97992.92
2023-03-13T03:01:46.503Z,97999.20
2023-03-13T03:04:14.481Z,98006.36
2023-03-13T03:06:43.204Z,98002.77
2023-03-13T03:09:12.449Z,98004.00
2023-03-13T03:11:40.976Z,98000.83
2023-03-13T03:14:13.028Z,97999.27
2023-03-13T03:16:44.549Z,98004.88
2023-03-13T03:19:13.308Z,98003.08
2023-03-13T03:21:44.206Z,98005.07
2023-03-13T03:24:12.339Z,98004.01
2023-03-13T03:26:40.298Z,98009.16
2023-03-13T03:29:13.750Z,98017.50
2023-03-13T03:31:42.101Z,98017.91
2023-03-13T03:34:10.924Z,98017.46
2023-03-13T03:36:39.115Z,98020.09
2023-03-13T03:39:07.194Z,98024.98
2023-03-13T03:41:37.565Z,98025.63
2023-03-13T03:44:06.268Z,98025.09
2023-03-13T03:46:43.526Z,98019.20
2023-03-13T03:49:11.861Z,98014.21
2023-03-13T03:51:39.948Z,98014.30
2023-03-13T03:54:09.195Z,98018.61
2023-03-13T03:56:37.332Z,98026.02
2023-03-13T03:59:07.304Z,98033.90
2023-03-13T04:01:57.567Z,98037.18
2023-03-13T04:04:27.430Z,98040.97
2023-03-13T04:07:02.375Z,98039.41
2023-03-13T04:09:32.355Z,98043.73
2023-03-13T04:12:01.868Z,98040.92
2023-03-13T04:14:32.034Z,98042.20
2023-03-13T04:17:01.722Z,98038.71
2023-03-13T04:19:29.951Z,98042.27
2023-03-13T04:21:58.625Z,98048.25
2023-03-13T04:24:27.567Z,98036.34
2023-03-13T04:26:57.052Z,98027.36
2023-03-13T04:29:26.912Z,98028.75
2023-03-13T04:32:21.275Z,98037.07
2023-03-13T04:35:08.117Z,98033.55
2023-03-13T04:38:03.140Z,98026.15
2023-03-13T04:41:06.239Z,98024.20
2023-03-13T04:44:01.041Z,98024.55
2023-03-13T04:46:55.700Z,98028.27
2023-03-13T04:49:43.941Z,98038.08
2023-03-13T04:52:40.607Z,98043.51
2023-03-13T04:55:17.174Z,98038.20
2023-03-13T04:58:05.597Z,98046.89
2023-03-13T05:00:44.700Z,98046.79
2023-03-13T05:03:33.034Z,98051.02
2023-03-13T05:06:33.393Z,98058.33
2023-03-13T05:09:19.348Z,98068.50
2023-03-13T05:12:06.617Z,98068.42
2023-03-13T05:14:57.936Z,98074.69
2023-03-13T05:17:46.789Z,98083.09
2023-03-13T05:20:33.739Z,98090.23
2023-03-13T05:23:34.535Z,98091.00
2023-03-13T05:26:32.253Z,98083.13
2023-03-13T05:29:23.192Z,98084.77
2023-03-13T05:32:09.541Z,98077.75
2023-03-13T05:34:58.818Z,98068.76
2023-03-13T05:37:48.860Z,98068.61
2023-03-13T05:40:35.420Z,98078.71
2023-03-13T05:43:14.171Z,98072.80
2023-03-13T05:45:49.800Z,98074.55
2023-03-13T05:48:37.868Z,98083.80
2023-03-13T05:51:16.956Z,98090.16
2023-03-13T05:54:01.617Z,98093.09
2023-03-13T05:56:58.863Z,98095.64
2023-03-13T05:59:48.476Z,98095.48
2023-03-13T06:02:28.512Z,98096.23
2023-03-13T06:04:58.126Z,98092.83
2023-03-13T06:07:28.243Z,98092.83
2023-03-13T06:09:56.551Z,98096.92
2023-03-13T06:12:44.641Z,98096.69
2023-03-13T06:15:14.336Z,98100.79
2023-03-13T06:17:56.765Z,98105.20
2023-03-13T06:20:24.855Z,98101.76
2023-03-13T06:22:53.537Z,98100.39
2023-03-13T06:25:22.610Z,98104.25
2023-03-13T06:27:51.970Z,98105.73
2023-03-13T06:30:20.542Z,98097.08
2023-03-13T06:32:50.798Z,98100.48
2023-03-13T06:35:20.190Z,98091.56
2023-03-13T06:37:48.418Z,98088.34
2023-03-13T06:40:16.859Z,98087.79
2023-03-13T06:42:45.008Z,98087.90
2023-03-13T06:45:13.086Z,98086.70
2023-03-13T06:47:41.475Z,98088.65
2023-03-13T06:50:10.254Z,98092.08
2023-03-13T06:52:43.891Z,98093.98
2023-03-13T06:55:15.387Z,98101.34
2023-03-13T06:57:43.699Z,98103.56
2023-03-13T07:00:12.168Z,98097.43
2023-03-13T07:02:40.612Z,98094.48
2023-03-13T07:05:28.776Z,98089.07
2023-03-13T07:07:58.344Z,98082.09
2023-03-13T07:10:26.875Z,98081.36
2023-03-13T07:12:57.373Z,98077.44
2023-03-13T07:15:25.626Z,98071.77
2023-03-13T07:18:00.433Z,98073.80
2023-03-13T07:20:28.992Z,98078.20
2023-03-13T07:22:57.198Z,98078.81
2023-03-13T07:25:28.971Z,98086.79
2023-03-13T07:27:57.696Z,98094.98
2023-03-13T07:30:25.844Z,98083.25
2023-03-13T07:32:54.535Z,98086.03
2023-03-13T07:35:24.042Z,98084.94
2023-03-13T07:37:52.764Z,98091.48
2023-03-13T07:40:20.995Z,98097.83
2023-03-13T07:42:49.110Z,98095.35
2023-03-13T07:45:18.218Z,98090.10
2023-03-13T07:47:47.854Z,98092.16
2023-03-13T07:50:17.097Z,98092.97
2023-03-13T07:52:46.278Z,98094.40
2023-03-13T07:55:14.899Z,98093.26
2023-03-13T07:57:43.565Z,98091.60
2023-03-13T08:00:16.735Z,98094.23
2023-03-13T08:02:47.921Z,98094.06
2023-03-13T08:05:16.125Z,98094.31
2023-03-13T08:07:45.536Z,98086.13
2023-03-13T08:10:17.549Z,98080.40
2023-03-13T08:12:54.141Z,98079.30
2023-03-13T08:15:26.561Z,98075.64
2023-03-13T08:17:56.117Z,98074.48
2023-03-13T08:20:24.406Z,98074.52
2023-03-13T08:22:52.928Z,98068.29
2023-03-13T08:25:22.101Z,98068.35
2023-03-13T08:27:53.213Z,98077.12
2023-03-13T08:30:22.659Z,98069.95
2023-03-13T08:32:50.930Z,98077.27
2023-03-13T08:35:19.160Z,98071.27
2023-03-13T08:37:47.769Z,98069.16
2023-03-13T08:40:16.131Z,98070.44
2023-03-13T08:42:44.283Z,98068.44
2023-03-13T08:45:15.465Z,98062.46
2023-03-13T08:47:45.467Z,98061.30
2023-03-13T08:50:17.059Z,98060.80
2023-03-13T08:52:46.628Z,98066.02
2023-03-13T08:55:16.510Z,98069.60
2023-03-13T08:57:44.845Z,98070.53
2023-03-13T09:00:14.304Z,98069.90
2023-03-13T09:02:42.678Z,98070.95
2023-03-13T09:05:10.964Z,98074.40
2023-03-13T09:07:42.214Z,98067.54
2023-03-13T09:10:11.101Z,98069.17
2023-03-13T09:12:39.905Z,98071.38
2023-03-13T09:15:09.619Z,98070.88
2023-03-13T09:17:37.693Z,98068.51
2023-03-13T09:20:07.172Z,98066.44
2023-03-13T09:22:35.149Z,98065.21
2023-03-13T09:25:03.441Z,98062.93
2023-03-13T09:27:31.688Z,98064.52
2023-03-13T09:30:02.189Z,98062.72
2023-03-13T09:32:30.327Z,98060.37
2023-03-13T09:34:59.468Z,98057.71
2023-03-13T09:37:27.624Z,98049.59
2023-03-13T09:39:57.719Z,98044.25
2023-03-13T09:42:44.424Z,98042.39
2023-03-13T09:45:38.507Z,98035.27
2023-03-13T09:48:31.134Z,98033.59
2023-03-13T09:51:15.225Z,98024.67
2023-03-13T09:53:46.696Z,98020.54
2023-03-13T09:56:20.643Z,98021.11
2023-03-13T09:59:43.801Z,98020.15
2023-03-13T10:02:27.180Z,98014.16
2023-03-13T10:05:24.329Z,98011.16
2023-03-13T10:08:01.764Z,98008.77
2023-03-13T10:10:38.489Z,98003.17
2023-03-13T10:13:57.686Z,98000.15
2023-03-13T10:17:28.558Z,97991.55
2023-03-13T10:20:25.134Z,97988.27
2023-03-13T10:23:03.280Z,97979.14
2023-03-13T10:25:36.582Z,97973.41
2023-03-13T10:28:06.279Z,97967.02
2023-03-13T10:30:37.378Z,97961.32
2023-03-13T10:33:10.012Z,97958.55
2023-03-13T10:35:43.231Z,97959.13
2023-03-13T10:38:20.123Z,97957.84
2023-03-13T10:41:01.357Z,97953.52
2023-03-13T10:43:31.897Z,97941.83
2023-03-13T10:46:12.001Z,97935.79
2023-03-13T10:48:43.331Z,97933.11
2023-03-13T10:51:28.599Z,97935.48
2023-03-13T10:53:57.945Z,97931.77
2023-03-13T10:56:31.390Z,97930.61
2023-03-13T10:59:00.684Z,97922.55
2023-03-13T11:01:34.061Z,97921.09
2023-03-13T11:04:20.571Z,97913.44
2023-03-13T11:06:53.132Z,97910.73
2023-03-13T11:09:21.476Z,97903.74
2023-03-13T11:11:55.647Z,97894.51
2023-03-13T11:14:26.679Z,97890.89
2023-03-13T11:17:00.178Z,97886.98
2023-03-13T11:19:35.535Z,97884.85
2023-03-13T11:22:15.408Z,97883.76
2023-03-13T11:24:44.841Z,97880.39
2023-03-13T11:27:41.917Z,97875.12
2023-03-13T11:30:25.315Z,97868.73
2023-03-13T11:33:17.707Z,97863.67
2023-03-13T11:36:29.746Z,97857.10
2023-03-13T11:39:06.864Z,97861.39
2023-03-13T11:42:01.258Z,97863.88
2023-03-13T11:44:31.009Z,97857.09
2023-03-13T11:47:28.895Z,97857.57
2023-03-13T11:50:09.587Z,97856.23
2023-03-13T11:52:58.139Z,97858.38
2023-03-13T11:56:08.551Z,97855.67
2023-03-13T11:59:05.964Z,97848.70
2023-03-13T12:01:46.593Z,97846.20
2023-03-13T12:04:38.539Z,97842.52
2023-03-13T12:07:26.198Z,97843.74
2023-03-13T12:10:00.080Z,97842.20
2023-03-13T12:12:52.694Z,97838.20
2023-03-13T12:15:23.006Z,97839.63
2023-03-13T12:18:13.071Z,97840.05
2023-03-13T12:20:57.563Z,97840.27
2023-03-13T12:23:58.064Z,97835.74
2023-03-13T12:26:35.427Z,97835.48
2023-03-13T12:29:25.208Z,97833.10
2023-03-13T12:32:22.364Z,97833.72
2023-03-13T12:35:12.696Z,97827.58
2023-03-13T12:37:55.541Z,97822.13
2023-03-13T12:40:47.930Z,97819.11
2023-03-13T12:43:24.876Z,97820.31
2023-03-13T12:45:59.272Z,97818.05
2023-03-13T12:48:49.180Z,97819.05
2023-03-13T12:51:45.488Z,97818.41
2023-03-13T12:54:26.872Z,97815.30
2023-03-13T12:56:58.052Z,97811.61
2023-03-13T12:59:39.116Z,97810.41
2023-03-13T13:02:20.702Z,97808.10
2023-03-13T13:04:51.277Z,97803.73
2023-03-13T13:07:22.883Z,97804.05
2023-03-13T13:10:12.206Z,97798.42
2023-03-13T13:12:44.097Z,97796.92
2023-03-13T13:15:31.628Z,97798.50
2023-03-13T13:18:26.607Z,97790.96
2023-03-13T13:21:07.416Z,97782.67
2023-03-13T13:23:42.081Z,97782.88
2023-03-13T13:26:33.900Z,97777.91
2023-03-13T13:29:22.054Z,97778.27
2023-03-13T13:31:57.161Z,97774.98
2023-03-13T13:34:28.799Z,97768.09
2023-03-13T13:37:15.336Z,97765.13
2023-03-13T13:39:55.103Z,97763.95
2023-03-13T13:42:44.196Z,97766.23
2023-03-13T13:45:14.646Z,97762.89
2023-03-13T13:47:48.194Z,97755.48
2023-03-13T13:50:28.920Z,97754.32
2023-03-13T13:53:31.456Z,97750.55
2023-03-13T13:55:59.677Z,97748.52
2023-03-13T13:58:30.388Z,97744.67
2023-03-13T14:01:01.778Z,97745.93
2023-03-13T14:03:36.844Z,97743.95
2023-03-13T14:06:32.316Z,97745.33
2023-03-13T14:09:20.763Z,97737.02
2023-03-13T14:11:52.109Z,97729.35
2023-03-13T14:14:21.996Z,97728.30
2023-03-13T14:16:58.523Z,97726.42
2023-03-13T14:19:41.338Z,97726.80
2023-03-13T14:22:29.523Z,97725.34
2023-03-13T14:24:58.751Z,97717.30
2023-03-13T14:27:29.535Z,97718.21
2023-03-13T14:30:05.347Z,97714.24
2023-03-13T14:32:36.752Z,97708.83
2023-03-13T14:35:07.689Z,97704.37
2023-03-13T14:37:44.379Z,97704.69
2023-03-13T14:40:27.235Z,97695.60
2023-03-13T14:43:04.387Z,97688.13
2023-03-13T14:45:51.695Z,97682.88
2023-03-13T14:56:44.889Z,97673.27
2023-03-13T15:02:42.691Z,97670.84
2023-03-13T15:06:16.600Z,97675.14
2023-03-13T15:09:26.132Z,97678.85
2023-03-13T15:12:01.948Z,97680.60
2023-03-13T15:14:36.723Z,97678.15
2023-03-13T15:17:17.943Z,97678.48
2023-03-13T15:19:57.872Z,97675.08
2023-03-13T15:22:31.852Z,97675.28
2023-03-13T15:25:06.472Z,97674.36
2023-03-13T15:27:35.700Z,97673.75
2023-03-13T15:30:04.184Z,97679.86
2023-03-13T15:32:39.980Z,97680.98
2023-03-13T15:35:31.579Z,97686.27
2023-03-13T15:38:05.821Z,97683.56
2023-03-13T15:40:43.159Z,97681.80
2023-03-13T15:43:12.114Z,97680.04
2023-03-13T15:45:42.712Z,97676.58
2023-03-13T15:48:34.077Z,97671.80
2023-03-13T15:51:04.276Z,97665.95
2023-03-13T15:53:35.514Z,97664.48
2023-03-13T15:56:13.527Z,97660.96
2023-03-13T15:58:42.228Z,97660.66
2023-03-13T16:01:12.461Z,97663.02
2023-03-13T16:03:42.292Z,97664.59
2023-03-13T16:06:16.902Z,97668.23
2023-03-13T16:08:47.994Z,97671.95
2023-03-13T16:11:17.402Z,97673.23
2023-03-13T16:13:45.375Z,97676.49
2023-03-13T16:16:37.661Z,97674.59
2023-03-13T16:19:09.203Z,97669.83
2023-03-13T16:21:40.512Z,97680.13
2023-03-13T16:24:08.881Z,97676.87
2023-03-13T16:26:36.876Z,97681.30
2023-03-13T16:29:04.857Z,97685.70
2023-03-13T16:31:33.690Z,97687.47
2023-03-13T16:34:04.659Z,97691.45
2023-03-13T16:36:33.276Z,97686.50
2023-03-13T16:39:09.117Z,97690.73
2023-03-13T16:41:37.636Z,97692.87
2023-03-13T16:44:05.750Z,97690.42
2023-03-13T16:46:39.002Z,97685.13
2023-03-13T16:49:11.421Z,97684.97
2023-03-13T16:51:40.317Z,97688.45
2023-03-13T16:54:08.370Z,97685.25
2023-03-13T16:56:39.228Z,97686.19
2023-03-13T16:59:12.499Z,97678.95
2023-03-13T17:01:41.004Z,97686.70
2023-03-13T17:04:09.374Z,97684.12
2023-03-13T17:06:41.448Z,97686.14
2023-03-13T17:09:16.167Z,97686.67
2023-03-13T17:11:47.143Z,97688.14
2023-03-13T17:14:15.227Z,97696.75
2023-03-13T17:16:45.410Z,97699.04
2023-03-13T17:19:14.408Z,97700.62
2023-03-13T17:21:42.830Z,97697.58
2023-03-13T17:24:10.910Z,97690.75
2023-03-13T17:26:40.135Z,97688.55
2023-03-13T17:29:18.546Z,97686.77
2023-03-13T17:31:46.911Z,97689.96
2023-03-13T17:34:16.990Z,97686.93
2023-03-13T17:36:46.290Z,97688.78
2023-03-13T17:39:15.390Z,97686.12
2023-03-13T17:41:43.497Z,97681.89
2023-03-13T17:44:13.895Z,97680.59
2023-03-13T17:46:47.160Z,97679.38
2023-03-13T17:49:17.645Z,97677.98
2023-03-13T17:51:46.449Z,97673.44
2023-03-13T17:54:15.946Z,97672.04
2023-03-13T17:56:45.521Z,97675.48
2023-03-13T17:59:17.908Z,97671.73
2023-03-13T18:01:47.633Z,97671.67
2023-03-13T18:04:16.015Z,97669.05
2023-03-13T18:06:47.130Z,97668.45
2023-03-13T18:09:21.117Z,97668.59
2023-03-13T18:11:49.788Z,97659.93
2023-03-13T18:14:18.227Z,97656.30
2023-03-13T18:16:49.075Z,97658.70
2023-03-13T18:19:21.978Z,97657.83
2023-03-13T18:21:53.227Z,97653.40
2023-03-13T18:24:21.793Z,97654.60
2023-03-13T18:26:50.299Z,97649.94
2023-03-13T18:29:26.483Z,97654.52
2023-03-13T18:32:01.052Z,97649.13
2023-03-13T18:34:29.696Z,97648.45
2023-03-13T18:37:03.562Z,97649.27
2023-03-13T18:39:32.963Z,97642.46
2023-03-13T18:42:02.047Z,97648.63
2023-03-13T18:44:30.166Z,97649.09
2023-03-13T18:46:58.361Z,97651.80
2023-03-13T18:49:26.458Z,97646.14
2023-03-13T18:51:54.458Z,97647.81
2023-03-13T18:54:22.610Z,97648.25
2023-03-13T18:56:50.599Z,97654.91
2023-03-13T18:59:21.632Z,97655.97
2023-03-13T19:01:49.875Z,97654.56
2023-03-13T19:04:19.498Z,97647.65
2023-03-13T19:06:48.344Z,97648.83
2023-03-13T19:12:13.213Z,97647.13
2023-03-13T19:14:43.312Z,97650.27
2023-03-13T19:17:23.239Z,97653.13
2023-03-13T19:19:51.216Z,97648.16
2023-03-13T19:22:19.596Z,97651.42
2023-03-13T19:24:47.760Z,97651.73
2023-03-13T19:27:17.148Z,97652.80
2023-03-13T19:29:45.667Z,97646.79
2023-03-13T19:32:18.720Z,97644.63
2023-03-13T19:34:46.919Z,97646.30
2023-03-13T19:37:16.386Z,97643.66
2023-03-13T19:39:45.294Z,97643.50
2023-03-13T19:42:13.520Z,97639.79
2023-03-13T19:44:42.137Z,97640.95
2023-03-13T19:47:14.926Z,97641.89
2023-03-13T19:49:43.205Z,97641.40
2023-03-13T19:52:11.411Z,97640.76
2023-03-13T19:54:39.852Z,97642.50
2023-03-13T19:57:10.911Z,97647.08
2023-03-13T19:59:40.155Z,97647.70
2023-03-13T20:02:10.320Z,97649.91
2023-03-13T20:04:39.556Z,97648.76
2023-03-13T20:07:08.265Z,97648.86
2023-03-13T20:09:36.935Z,97652.38
2023-03-13T20:12:05.404Z,97656.14
2023-03-13T20:14:33.495Z,97652.92
2023-03-13T20:17:03.275Z,97653.88
2023-03-13T20:19:31.504Z,97648.44
2023-03-13T20:22:03.717Z,97645.89
2023-03-13T20:24:35.954Z,97644.85
2023-03-13T20:27:04.588Z,97643.89
2023-03-13T20:29:33.870Z,97641.50
2023-03-13T20:32:06.388Z,97636.37
2023-03-13T20:34:37.685Z,97628.45
2023-03-13T20:37:05.774Z,97630.79
2023-03-13T20:39:36.121Z,97632.81
2023-03-13T20:42:06.617Z,97637.63
2023-03-13T20:44:35.598Z,97632.63
2023-03-13T20:47:03.584Z,97635.39
2023-03-13T20:49:31.498Z,97632.95
2023-03-13T20:52:00.640Z,97625.17
2023-03-13T20:54:28.946Z,97624.38
2023-03-13T20:56:58.210Z,97623.19
2023-03-13T20:59:26.496Z,97625.49
2023-03-13T21:01:54.659Z,97624.58
2023-03-13T21:04:22.812Z,97625.14
2023-03-13T21:06:50.923Z,97625.58
2023-03-13T21:09:19.050Z,97624.75
2023-03-13T21:11:47.028Z,97628.88
2023-03-13T21:14:15.689Z,97629.21
2023-03-13T21:16:44.037Z,97623.14
2023-03-13T21:19:12.276Z,97616.46
2023-03-13T21:21:41.767Z,97613.71
2023-03-13T21:24:10.541Z,97612.38
2023-03-13T21:26:39.574Z,97609.38
2023-03-13T21:29:09.322Z,97607.19
2023-03-13T21:31:39.409Z,97601.88
2023-03-13T21:34:08.669Z,97600.98
2023-03-13T21:36:36.916Z,97600.14
2023-03-13T21:39:08.516Z,97594.29
2023-03-13T21:41:36.703Z,97587.63
2023-03-13T21:44:07.998Z,97582.58
2023-03-13T21:46:36.070Z,97578.20
2023-03-13T21:49:04.203Z,97570.34
2023-03-13T21:51:32.328Z,97566.42
2023-03-13T21:54:02.621Z,97565.91
2023-03-13T21:56:30.619Z,97559.52
2023-03-13T21:58:59.293Z,97553.46
2023-03-13T22:01:27.474Z,97545.59
2023-03-13T22:03:55.640Z,97546.87
2023-03-13T22:06:24.605Z,97540.77
2023-03-13T22:08:53.520Z,97540.20
2023-03-13T22:11:22.108Z,97542.70
2023-03-13T22:13:52.742Z,97542.89
2023-03-13T22:16:27.168Z,97538.23
2023-03-13T22:18:55.413Z,97534.29
2023-03-13T22:21:24.976Z,97532.87
2023-03-13T22:23:55.116Z,97522.84
2023-03-13T22:26:23.345Z,97520.94
2023-03-13T22:28:52.515Z,97517.14
2023-03-13T22:31:20.656Z,97515.80
2023-03-13T22:33:48.612Z,97511.02
2023-03-13T22:36:16.680Z,97504.13
2023-03-13T22:38:44.732Z,97506.17
2023-03-13T22:41:14.351Z,97508.48
2023-03-13T22:43:42.363Z,97510.58
2023-03-13T22:46:14.101Z,97509.59
2023-03-13T22:48:42.269Z,97504.39
2023-03-13T22:51:12.795Z,97499.55
2023-03-13T22:53:42.545Z,97494.63
2023-03-13T22:56:12.393Z,97495.90
2023-03-13T22:58:41.025Z,97498.45
2023-03-13T23:01:15.347Z,97491.02
2023-03-13T23:03:43.909Z,97485.79
2023-03-13T23:06:20.059Z,97485.79
2023-03-13T23:08:48.354Z,97483.65
2023-03-13T23:11:18.361Z,97479.04
2023-03-13T23:13:49.732Z,97475.59
2023-03-13T23:16:17.734Z,97470.02
2023-03-13T23:18:45.754Z,97468.80
2023-03-13T23:21:14.934Z,97468.06
2023-03-13T23:23:43.576Z,97464.89
2023-03-13T23:26:14.738Z,97464.89
2023-03-13T23:28:42.994Z,97463.40
2023-03-13T23:31:15.513Z,97456.40
2023-03-13T23:33:44.291Z,97454.27
2023-03-13T23:36:15.189Z,97461.31
2023-03-13T23:38:44.561Z,97464.39
2023-03-13T23:41:14.219Z,97465.25
2023-03-13T23:43:42.884Z,97462.55
2023-03-13T23:46:23.352Z,97455.09
2023-03-13T23:48:56.095Z,97449.98
2023-03-13T23:51:25.240Z,97459.20
2023-03-13T23:53:54.401Z,97461.63
2023-03-13T23:56:25.331Z,97456.67
2023-03-13T23:58:54.665Z,97455.56
